sensor_id;sensor_type;location;lat;lon;timestamp;pressure;altitude;pressure_sealevel;temperature;humidity
63447;BME280;49577;49.872;6.190;2023-05-09T00:00:02;99705.86;;;13.49;84.94
63447;BME280;49577;49.872;6.190;2023-05-09T00:02:30;99705.04;;;13.48;84.65
63447;BME280;49577;49.872;6.190;2023-05-09T00:04:59;99706.29;;;13.46;84.56
63447;BME280;49577;49.872;6.190;2023-05-09T00:07:26;99707.92;;;13.45;84.90
63447;BME280;49577;49.872;6.190;2023-05-09T00:09:51;99710.14;;;13.46;84.92
63447;BME280;49577;49.872;6.190;2023-05-09T00:12:16;99705.36;;;13.44;84.83
63447;BME280;49577;49.872;6.190;2023-05-09T00:14:41;99705.45;;;13.43;84.95
63447;BME280;49577;49.872;6.190;2023-05-09T00:17:09;99705.04;;;13.44;85.18
63447;BME280;49577;49.872;6.190;2023-05-09T00:19:38;99709.59;;;13.44;85.20
63447;BME280;49577;49.872;6.190;2023-05-09T00:22:04;99706.79;;;13.44;84.87
63447;BME280;49577;49.872;6.190;2023-05-09T00:24:29;99706.94;;;13.42;84.93
63447;BME280;49577;49.872;6.190;2023-05-09T00:26:55;99699.95;;;13.38;84.81
63447;BME280;49577;49.872;6.190;2023-05-09T00:29:20;99697.54;;;13.33;84.75
63447;BME280;49577;49.872;6.190;2023-05-09T00:31:45;99692.67;;;13.28;84.90
63447;BME280;49577;49.872;6.190;2023-05-09T00:34:10;99683.35;;;13.23;85.26
63447;BME280;49577;49.872;6.190;2023-05-09T00:36:36;99677.95;;;13.23;85.68
63447;BME280;49577;49.872;6.190;2023-05-09T00:39:01;99677.75;;;13.23;85.55
63447;BME280;49577;49.872;6.190;2023-05-09T00:41:26;99679.16;;;13.20;85.32
63447;BME280;49577;49.872;6.190;2023-05-09T00:43:52;99679.13;;;13.18;85.39
63447;BME280;49577;49.872;6.190;2023-05-09T00:46:17;99678.27;;;13.18;85.49
63447;BME280;49577;49.872;6.190;2023-05-09T00:48:42;99676.13;;;13.16;85.37
63447;BME280;49577;49.872;6.190;2023-05-09T00:51:08;99666.09;;;13.12;85.31
63447;BME280;49577;49.872;6.190;2023-05-09T00:53:33;99660.92;;;13.08;85.40
63447;BME280;49577;49.872;6.190;2023-05-09T00:55:59;99655.92;;;13.05;85.62
63447;BME280;49577;49.872;6.190;2023-05-09T00:58:24;99650.48;;;13.00;85.73
63447;BME280;49577;49.872;6.190;2023-05-09T01:00:49;99644.13;;;12.98;85.95
63447;BME280;49577;49.872;6.190;2023-05-09T01:03:15;99644.19;;;12.97;86.05
63447;BME280;49577;49.872;6.190;2023-05-09T01:08:50;99637.98;;;12.96;86.05
63447;BME280;49577;49.872;6.190;2023-05-09T01:11:31;99642.17;;;12.96;86.20
63447;BME280;49577;49.872;6.190;2023-05-09T01:14:29;99637.95;;;12.96;86.11
63447;BME280;49577;49.872;6.190;2023-05-09T01:17:05;99641.98;;;12.94;85.90
63447;BME280;49577;49.872;6.190;2023-05-09T01:19:50;99643.04;;;12.91;85.99
63447;BME280;49577;49.872;6.190;2023-05-09T01:22:19;99645.22;;;12.90;86.04
63447;BME280;49577;49.872;6.190;2023-05-09T01:30:20;99636.43;;;12.76;85.81
63447;BME280;49577;49.872;6.190;2023-05-09T01:32:48;99636.12;;;12.70;86.13
63447;BME280;49577;49.872;6.190;2023-05-09T01:35:16;99638.12;;;12.67;86.38
63447;BME280;49577;49.872;6.190;2023-05-09T01:37:43;99639.64;;;12.65;86.49
63447;BME280;49577;49.872;6.190;2023-05-09T01:40:14;99631.95;;;12.64;86.46
63447;BME280;49577;49.872;6.190;2023-05-09T01:42:48;99629.98;;;12.65;86.57
63447;BME280;49577;49.872;6.190;2023-05-09T01:45:15;99623.97;;;12.66;86.58
63447;BME280;49577;49.872;6.190;2023-05-09T01:47:41;99620.56;;;12.65;86.29
63447;BME280;49577;49.872;6.190;2023-05-09T01:50:10;99614.73;;;12.65;86.47
63447;BME280;49577;49.872;6.190;2023-05-09T01:52:36;99613.21;;;12.64;86.55
63447;BME280;49577;49.872;6.190;2023-05-09T01:55:03;99611.98;;;12.62;86.59
63447;BME280;49577;49.872;6.190;2023-05-09T01:57:29;99609.84;;;12.60;86.67
63447;BME280;49577;49.872;6.190;2023-05-09T01:59:56;99612.48;;;12.60;86.63
63447;BME280;49577;49.872;6.190;2023-05-09T02:02:24;99616.95;;;12.56;86.31
63447;BME280;49577;49.872;6.190;2023-05-09T02:04:50;99624.73;;;12.53;86.28
63447;BME280;49577;49.872;6.190;2023-05-09T02:07:16;99626.80;;;12.51;86.30
63447;BME280;49577;49.872;6.190;2023-05-09T02:09:42;99629.02;;;12.49;86.36
63447;BME280;49577;49.872;6.190;2023-05-09T02:12:07;99627.35;;;12.48;86.34
63447;BME280;49577;49.872;6.190;2023-05-09T02:14:32;99627.23;;;12.47;86.27
63447;BME280;49577;49.872;6.190;2023-05-09T02:16:59;99635.71;;;12.46;86.37
63447;BME280;49577;49.872;6.190;2023-05-09T02:19:30;99632.38;;;12.44;86.30
63447;BME280;49577;49.872;6.190;2023-05-09T02:21:55;99634.17;;;12.40;86.28
63447;BME280;49577;49.872;6.190;2023-05-09T02:24:20;99634.11;;;12.36;86.19
63447;BME280;49577;49.872;6.190;2023-05-09T02:26:46;99630.79;;;12.34;86.27
63447;BME280;49577;49.872;6.190;2023-05-09T02:29:11;99628.58;;;12.33;86.62
63447;BME280;49577;49.872;6.190;2023-05-09T02:31:38;99633.55;;;12.31;86.80
63447;BME280;49577;49.872;6.190;2023-05-09T02:34:05;99624.45;;;12.32;86.86
63447;BME280;49577;49.872;6.190;2023-05-09T02:36:31;99623.05;;;12.32;86.88
63447;BME280;49577;49.872;6.190;2023-05-09T02:38:57;99617.77;;;12.32;86.92
63447;BME280;49577;49.872;6.190;2023-05-09T02:41:25;99618.30;;;12.32;86.91
63447;BME280;49577;49.872;6.190;2023-05-09T02:43:52;99616.75;;;12.31;86.77
63447;BME280;49577;49.872;6.190;2023-05-09T02:46:18;99613.09;;;12.29;86.41
63447;BME280;49577;49.872;6.190;2023-05-09T02:48:43;99609.77;;;12.24;86.43
63447;BME280;49577;49.872;6.190;2023-05-09T02:51:08;99613.61;;;12.21;86.67
63447;BME280;49577;49.872;6.190;2023-05-09T02:53:33;99615.36;;;12.19;86.77
63447;BME280;49577;49.872;6.190;2023-05-09T02:55:59;99615.32;;;12.17;87.07
63447;BME280;49577;49.872;6.190;2023-05-09T02:58:24;99614.39;;;12.18;87.20
63447;BME280;49577;49.872;6.190;2023-05-09T03:00:49;99618.90;;;12.18;87.43
63447;BME280;49577;49.872;6.190;2023-05-09T03:03:15;99616.98;;;12.21;87.61
63447;BME280;49577;49.872;6.190;2023-05-09T03:05:42;99624.91;;;12.22;87.67
63447;BME280;49577;49.872;6.190;2023-05-09T03:08:07;99622.08;;;12.23;87.72
63447;BME280;49577;49.872;6.190;2023-05-09T03:10:33;99610.34;;;12.23;87.78
63447;BME280;49577;49.872;6.190;2023-05-09T03:12:58;99608.23;;;12.23;87.80
63447;BME280;49577;49.872;6.190;2023-05-09T03:15:23;99611.35;;;12.21;87.56
63447;BME280;49577;49.872;6.190;2023-05-09T03:17:49;99613.38;;;12.20;87.74
63447;BME280;49577;49.872;6.190;2023-05-09T03:20:14;99603.60;;;12.19;87.82
63447;BME280;49577;49.872;6.190;2023-05-09T03:22:39;99596.27;;;12.19;87.88
63447;BME280;49577;49.872;6.190;2023-05-09T03:25:05;99592.58;;;12.19;87.91
63447;BME280;49577;49.872;6.190;2023-05-09T03:27:31;99586.51;;;12.18;87.84
63447;BME280;49577;49.872;6.190;2023-05-09T03:29:56;99585.33;;;12.15;87.73
63447;BME280;49577;49.872;6.190;2023-05-09T03:32:21;99582.35;;;12.12;87.72
63447;BME280;49577;49.872;6.190;2023-05-09T03:34:46;99580.58;;;12.10;87.76
63447;BME280;49577;49.872;6.190;2023-05-09T03:37:12;99579.40;;;12.10;87.99
63447;BME280;49577;49.872;6.190;2023-05-09T03:39:37;99577.63;;;12.10;88.14
63447;BME280;49577;49.872;6.190;2023-05-09T03:42:02;99573.80;;;12.12;88.27
63447;BME280;49577;49.872;6.190;2023-05-09T03:44:28;99575.21;;;12.15;88.49
63447;BME280;49577;49.872;6.190;2023-05-09T03:46:53;99576.13;;;12.16;88.45
63447;BME280;49577;49.872;6.190;2023-05-09T03:49:18;99577.02;;;12.19;88.54
63447;BME280;49577;49.872;6.190;2023-05-09T03:51:43;99573.54;;;12.21;88.61
63447;BME280;49577;49.872;6.190;2023-05-09T03:54:09;99574.14;;;12.25;88.48
63447;BME280;49577;49.872;6.190;2023-05-09T03:56:34;99569.31;;;12.29;88.62
63447;BME280;49577;49.872;6.190;2023-05-09T03:59:00;99568.13;;;12.33;88.55
63447;BME280;49577;49.872;6.190;2023-05-09T04:01:25;99569.98;;;12.36;88.35
63447;BME280;49577;49.872;6.190;2023-05-09T04:03:50;99567.67;;;12.39;88.26
63447;BME280;49577;49.872;6.190;2023-05-09T04:06:17;99567.83;;;12.39;88.27
63447;BME280;49577;49.872;6.190;2023-05-09T04:08:43;99564.55;;;12.39;87.99
63447;BME280;49577;49.872;6.190;2023-05-09T04:11:08;99559.49;;;12.38;88.05
63447;BME280;49577;49.872;6.190;2023-05-09T04:13:34;99557.01;;;12.39;88.26
63447;BME280;49577;49.872;6.190;2023-05-09T04:15:59;99555.46;;;12.41;88.16
63447;BME280;49577;49.872;6.190;2023-05-09T04:18:25;99553.91;;;12.41;88.22
63447;BME280;49577;49.872;6.190;2023-05-09T04:20:50;99547.91;;;12.42;88.17
63447;BME280;49577;49.872;6.190;2023-05-09T04:23:16;99541.67;;;12.43;88.29
63447;BME280;49577;49.872;6.190;2023-05-09T04:25:41;99543.66;;;12.47;88.44
63447;BME280;49577;49.872;6.190;2023-05-09T04:28:06;99550.80;;;12.50;88.32
63447;BME280;49577;49.872;6.190;2023-05-09T04:30:32;99549.00;;;12.53;88.28
63447;BME280;49577;49.872;6.190;2023-05-09T04:32:57;99551.03;;;12.57;88.38
63447;BME280;49577;49.872;6.190;2023-05-09T04:35:23;99557.67;;;12.62;88.42
63447;BME280;49577;49.872;6.190;2023-05-09T04:37:48;99555.63;;;12.66;88.30
63447;BME280;49577;49.872;6.190;2023-05-09T04:40:14;99558.09;;;12.71;88.26
63447;BME280;49577;49.872;6.190;2023-05-09T04:42:39;99559.48;;;12.75;88.14
63447;BME280;49577;49.872;6.190;2023-05-09T04:45:05;99554.55;;;12.81;88.11
63447;BME280;49577;49.872;6.190;2023-05-09T04:47:31;99547.34;;;12.86;88.00
63447;BME280;49577;49.872;6.190;2023-05-09T04:49:56;99539.47;;;12.91;87.81
63447;BME280;49577;49.872;6.190;2023-05-09T04:52:22;99531.48;;;12.94;87.63
63447;BME280;49577;49.872;6.190;2023-05-09T04:54:47;99523.97;;;12.97;87.66
63447;BME280;49577;49.872;6.190;2023-05-09T04:57:13;99524.62;;;12.97;87.52
63447;BME280;49577;49.872;6.190;2023-05-09T04:59:38;99528.17;;;12.99;87.44
63447;BME280;49577;49.872;6.190;2023-05-09T05:02:03;99524.70;;;12.98;87.21
63447;BME280;49577;49.872;6.190;2023-05-09T05:04:28;99525.64;;;12.98;87.15
63447;BME280;49577;49.872;6.190;2023-05-09T05:06:54;99525.77;;;12.98;87.24
63447;BME280;49577;49.872;6.190;2023-05-09T05:09:20;99524.98;;;12.99;87.30
63447;BME280;49577;49.872;6.190;2023-05-09T05:11:45;99523.41;;;13.01;87.29
63447;BME280;49577;49.872;6.190;2023-05-09T05:14:10;99524.61;;;13.04;87.24
63447;BME280;49577;49.872;6.190;2023-05-09T05:16:36;99522.31;;;13.07;87.11
63447;BME280;49577;49.872;6.190;2023-05-09T05:19:02;99516.13;;;13.10;87.06
63447;BME280;49577;49.872;6.190;2023-05-09T05:21:27;99514.25;;;13.14;86.99
63447;BME280;49577;49.872;6.190;2023-05-09T05:23:52;99513.98;;;13.17;86.79
63447;BME280;49577;49.872;6.190;2023-05-09T05:26:18;99515.45;;;13.19;86.96
63447;BME280;49577;49.872;6.190;2023-05-09T05:28:43;99515.12;;;13.23;86.83
63447;BME280;49577;49.872;6.190;2023-05-09T05:31:08;99511.77;;;13.31;86.92
63447;BME280;49577;49.872;6.190;2023-05-09T05:33:34;99514.37;;;13.38;86.95
63447;BME280;49577;49.872;6.190;2023-05-09T05:35:59;99510.05;;;13.45;87.07
63447;BME280;49577;49.872;6.190;2023-05-09T05:38:24;99507.41;;;13.52;86.97
63447;BME280;49577;49.872;6.190;2023-05-09T05:40:49;99508.92;;;13.59;86.86
63447;BME280;49577;49.872;6.190;2023-05-09T05:43:15;99506.47;;;13.66;86.69
63447;BME280;49577;49.872;6.190;2023-05-09T05:45:40;99496.46;;;13.68;86.30
63447;BME280;49577;49.872;6.190;2023-05-09T05:48:05;99491.52;;;13.71;86.05
63447;BME280;49577;49.872;6.190;2023-05-09T05:50:31;99490.35;;;13.74;86.15
63447;BME280;49577;49.872;6.190;2023-05-09T05:52:56;99486.27;;;13.77;85.81
63447;BME280;49577;49.872;6.190;2023-05-09T05:55:21;99484.61;;;13.78;85.79
63447;BME280;49577;49.872;6.190;2023-05-09T05:57:47;99482.77;;;13.81;85.77
63447;BME280;49577;49.872;6.190;2023-05-09T06:00:13;99480.59;;;13.85;85.59
63447;BME280;49577;49.872;6.190;2023-05-09T06:02:41;99483.33;;;13.88;85.39
63447;BME280;49577;49.872;6.190;2023-05-09T06:05:09;99478.02;;;13.91;85.28
63447;BME280;49577;49.872;6.190;2023-05-09T06:07:34;99471.97;;;13.96;85.40
63447;BME280;49577;49.872;6.190;2023-05-09T06:09:59;99471.02;;;14.02;85.47
63447;BME280;49577;49.872;6.190;2023-05-09T06:12:25;99468.96;;;14.10;85.35
63447;BME280;49577;49.872;6.190;2023-05-09T06:14:50;99466.32;;;14.14;84.73
63447;BME280;49577;49.872;6.190;2023-05-09T06:17:15;99464.38;;;14.19;84.76
63447;BME280;49577;49.872;6.190;2023-05-09T06:19:41;99467.20;;;14.28;84.58
63447;BME280;49577;49.872;6.190;2023-05-09T06:22:06;99464.88;;;14.34;84.41
63447;BME280;49577;49.872;6.190;2023-05-09T06:24:31;99463.48;;;14.41;84.05
63447;BME280;49577;49.872;6.190;2023-05-09T06:26:57;99457.29;;;14.44;83.55
63447;BME280;49577;49.872;6.190;2023-05-09T06:29:22;99452.66;;;14.49;83.45
63447;BME280;49577;49.872;6.190;2023-05-09T06:31:47;99449.79;;;14.58;83.35
63447;BME280;49577;49.872;6.190;2023-05-09T06:34:12;99453.41;;;14.70;83.13
63447;BME280;49577;49.872;6.190;2023-05-09T06:36:38;99452.05;;;14.80;82.65
63447;BME280;49577;49.872;6.190;2023-05-09T06:39:03;99448.83;;;14.91;82.72
63447;BME280;49577;49.872;6.190;2023-05-09T06:41:28;99448.84;;;15.04;82.09
63447;BME280;49577;49.872;6.190;2023-05-09T06:43:54;99442.46;;;15.13;81.49
63447;BME280;49577;49.872;6.190;2023-05-09T06:46:19;99443.63;;;15.22;81.31
63447;BME280;49577;49.872;6.190;2023-05-09T06:48:44;99438.48;;;15.32;81.10
63447;BME280;49577;49.872;6.190;2023-05-09T06:51:10;99434.30;;;15.45;80.62
63447;BME280;49577;49.872;6.190;2023-05-09T06:53:36;99429.16;;;15.64;80.29
63447;BME280;49577;49.872;6.190;2023-05-09T06:56:01;99417.94;;;15.85;79.63
63447;BME280;49577;49.872;6.190;2023-05-09T06:58:27;99412.32;;;16.07;78.98
63447;BME280;49577;49.872;6.190;2023-05-09T07:00:52;99408.58;;;16.33;78.50
63447;BME280;49577;49.872;6.190;2023-05-09T07:03:18;99407.82;;;16.63;77.94
63447;BME280;49577;49.872;6.190;2023-05-09T07:05:43;99406.18;;;16.89;77.24
63447;BME280;49577;49.872;6.190;2023-05-09T07:08:08;99408.59;;;17.05;76.23
63447;BME280;49577;49.872;6.190;2023-05-09T07:10:34;99406.86;;;17.18;75.38
63447;BME280;49577;49.872;6.190;2023-05-09T07:13:00;99404.48;;;17.21;74.50
63447;BME280;49577;49.872;6.190;2023-05-09T07:15:25;99403.48;;;17.24;74.43
63447;BME280;49577;49.872;6.190;2023-05-09T07:17:51;99401.90;;;17.27;74.15
63447;BME280;49577;49.872;6.190;2023-05-09T07:20:16;99394.92;;;17.34;73.82
63447;BME280;49577;49.872;6.190;2023-05-09T07:22:42;99395.41;;;17.49;73.52
63447;BME280;49577;49.872;6.190;2023-05-09T07:25:08;99395.91;;;17.66;73.28
63447;BME280;49577;49.872;6.190;2023-05-09T07:27:34;99390.91;;;18.04;72.60
63447;BME280;49577;49.872;6.190;2023-05-09T07:30:01;99383.64;;;18.42;70.96
63447;BME280;49577;49.872;6.190;2023-05-09T07:32:26;99381.27;;;18.73;70.22
63447;BME280;49577;49.872;6.190;2023-05-09T07:34:53;99377.84;;;18.95;69.28
63447;BME280;49577;49.872;6.190;2023-05-09T07:37:18;99374.69;;;19.16;68.80
63447;BME280;49577;49.872;6.190;2023-05-09T07:39:44;99372.27;;;19.23;67.88
63447;BME280;49577;49.872;6.190;2023-05-09T07:42:11;99370.88;;;19.28;67.80
63447;BME280;49577;49.872;6.190;2023-05-09T07:44:37;99368.49;;;19.41;67.54
63447;BME280;49577;49.872;6.190;2023-05-09T07:47:02;99363.27;;;19.44;66.96
63447;BME280;49577;49.872;6.190;2023-05-09T07:49:29;99362.44;;;19.40;66.91
63447;BME280;49577;49.872;6.190;2023-05-09T07:51:54;99357.13;;;19.33;66.76
63447;BME280;49577;49.872;6.190;2023-05-09T07:54:19;99354.95;;;19.34;66.58
63447;BME280;49577;49.872;6.190;2023-05-09T07:56:45;99350.50;;;19.49;66.43
63447;BME280;49577;49.872;6.190;2023-05-09T07:59:10;99344.29;;;19.67;66.24
63447;BME280;49577;49.872;6.190;2023-05-09T08:01:36;99343.46;;;19.78;65.68
63447;BME280;49577;49.872;6.190;2023-05-09T08:04:01;99338.32;;;19.79;65.33
63447;BME280;49577;49.872;6.190;2023-05-09T08:06:26;99335.36;;;19.80;65.53
63447;BME280;49577;49.872;6.190;2023-05-09T08:08:52;99331.29;;;19.85;65.42
63447;BME280;49577;49.872;6.190;2023-05-09T08:11:17;99328.13;;;19.82;65.15
63447;BME280;49577;49.872;6.190;2023-05-09T08:13:42;99323.05;;;19.90;64.96
63447;BME280;49577;49.872;6.190;2023-05-09T08:16:08;99315.00;;;19.95;64.72
63447;BME280;49577;49.872;6.190;2023-05-09T08:18:33;99317.02;;;19.91;63.98
63447;BME280;49577;49.872;6.190;2023-05-09T08:20:58;99307.52;;;19.96;64.08
63447;BME280;49577;49.872;6.190;2023-05-09T08:23:25;99303.77;;;20.00;63.96
63447;BME280;49577;49.872;6.190;2023-05-09T08:25:53;99300.65;;;20.04;63.62
63447;BME280;49577;49.872;6.190;2023-05-09T08:28:19;99293.10;;;20.11;63.53
63447;BME280;49577;49.872;6.190;2023-05-09T08:30:46;99286.83;;;20.17;63.15
63447;BME280;49577;49.872;6.190;2023-05-09T08:33:11;99284.16;;;20.04;62.76
63447;BME280;49577;49.872;6.190;2023-05-09T08:35:37;99280.79;;;19.89;63.04
63447;BME280;49577;49.872;6.190;2023-05-09T08:38:02;99273.52;;;19.67;63.27
63447;BME280;49577;49.872;6.190;2023-05-09T08:40:28;99273.34;;;19.47;63.68
63447;BME280;49577;49.872;6.190;2023-05-09T08:42:53;99271.71;;;19.23;63.83
63447;BME280;49577;49.872;6.190;2023-05-09T08:45:24;99271.21;;;19.06;64.17
63447;BME280;49577;49.872;6.190;2023-05-09T08:47:51;99265.48;;;18.99;64.60
63447;BME280;49577;49.872;6.190;2023-05-09T08:50:18;99257.17;;;19.00;64.95
63447;BME280;49577;49.872;6.190;2023-05-09T08:52:44;99253.02;;;19.04;64.91
63447;BME280;49577;49.872;6.190;2023-05-09T08:55:09;99253.48;;;19.13;65.19
63447;BME280;49577;49.872;6.190;2023-05-09T08:57:36;99252.12;;;19.18;64.85
63447;BME280;49577;49.872;6.190;2023-05-09T09:00:02;99250.36;;;19.29;64.82
63447;BME280;49577;49.872;6.190;2023-05-09T09:02:32;99243.31;;;19.51;64.39
63447;BME280;49577;49.872;6.190;2023-05-09T09:04:58;99243.77;;;19.74;63.59
63447;BME280;49577;49.872;6.190;2023-05-09T09:07:24;99241.73;;;19.94;63.18
63447;BME280;49577;49.872;6.190;2023-05-09T09:09:52;99236.23;;;20.16;62.80
63447;BME280;49577;49.872;6.190;2023-05-09T09:12:20;99230.95;;;20.29;62.27
63447;BME280;49577;49.872;6.190;2023-05-09T09:14:49;99230.48;;;20.39;61.88
63447;BME280;49577;49.872;6.190;2023-05-09T09:17:19;99227.48;;;20.46;61.31
63447;BME280;49577;49.872;6.190;2023-05-09T09:19:48;99222.83;;;20.48;61.16
63447;BME280;49577;49.872;6.190;2023-05-09T09:22:15;99220.16;;;20.41;60.19
63447;BME280;49577;49.872;6.190;2023-05-09T09:24:42;99215.23;;;20.21;60.49
63447;BME280;49577;49.872;6.190;2023-05-09T09:27:08;99210.70;;;20.17;60.73
63447;BME280;49577;49.872;6.190;2023-05-09T09:29:33;99205.69;;;20.06;60.33
63447;BME280;49577;49.872;6.190;2023-05-09T09:32:04;99206.28;;;20.04;60.57
63447;BME280;49577;49.872;6.190;2023-05-09T09:34:29;99204.38;;;20.07;60.61
63447;BME280;49577;49.872;6.190;2023-05-09T09:36:55;99198.34;;;20.07;60.66
63447;BME280;49577;49.872;6.190;2023-05-09T09:39:20;99195.89;;;20.09;60.20
63447;BME280;49577;49.872;6.190;2023-05-09T09:41:46;99194.45;;;20.06;60.10
63447;BME280;49577;49.872;6.190;2023-05-09T09:44:30;99194.10;;;20.23;59.93
63447;BME280;49577;49.872;6.190;2023-05-09T09:46:55;99188.73;;;20.75;58.90
63447;BME280;49577;49.872;6.190;2023-05-09T09:49:23;99184.63;;;21.33;57.92
63447;BME280;49577;49.872;6.190;2023-05-09T09:51:58;99180.54;;;21.71;56.36
63447;BME280;49577;49.872;6.190;2023-05-09T09:54:26;99178.90;;;21.85;55.51
63447;BME280;49577;49.872;6.190;2023-05-09T09:56:52;99176.30;;;21.79;55.29
63447;BME280;49577;49.872;6.190;2023-05-09T09:59:23;99169.31;;;21.65;54.80
63447;BME280;49577;49.872;6.190;2023-05-09T10:04:18;99164.59;;;21.10;54.99
63447;BME280;49577;49.872;6.190;2023-05-09T10:06:53;99163.90;;;20.94;55.16
63447;BME280;49577;49.872;6.190;2023-05-09T10:09:21;99158.69;;;20.77;55.17
63447;BME280;49577;49.872;6.190;2023-05-09T10:11:48;99156.30;;;20.62;55.59
63447;BME280;49577;49.872;6.190;2023-05-09T10:14:14;99155.34;;;20.43;56.17
63447;BME280;49577;49.872;6.190;2023-05-09T10:16:41;99156.55;;;20.23;57.28
63447;BME280;49577;49.872;6.190;2023-05-09T10:19:08;99153.80;;;19.98;58.30
63447;BME280;49577;49.872;6.190;2023-05-09T10:21:36;99153.41;;;19.74;59.46
63447;BME280;49577;49.872;6.190;2023-05-09T10:24:02;99157.55;;;19.50;60.44
63447;BME280;49577;49.872;6.190;2023-05-09T10:26:31;99157.40;;;19.28;61.20
63447;BME280;49577;49.872;6.190;2023-05-09T10:29:00;99160.70;;;18.97;61.62
63447;BME280;49577;49.872;6.190;2023-05-09T10:31:31;99167.45;;;18.72;62.36
63447;BME280;49577;49.872;6.190;2023-05-09T10:34:00;99163.11;;;18.53;63.19
63447;BME280;49577;49.872;6.190;2023-05-09T10:36:26;99158.38;;;18.35;63.79
63447;BME280;49577;49.872;6.190;2023-05-09T10:38:53;99155.09;;;18.33;64.25
63447;BME280;49577;49.872;6.190;2023-05-09T10:41:19;99149.29;;;18.39;64.75
63447;BME280;49577;49.872;6.190;2023-05-09T10:43:46;99150.79;;;18.41;64.81
63447;BME280;49577;49.872;6.190;2023-05-09T10:46:12;99150.73;;;18.42;64.82
63447;BME280;49577;49.872;6.190;2023-05-09T10:48:38;99148.59;;;18.39;64.77
63447;BME280;49577;49.872;6.190;2023-05-09T10:51:04;99145.56;;;18.42;65.24
63447;BME280;49577;49.872;6.190;2023-05-09T10:56:05;99140.66;;;18.51;66.22
63447;BME280;49577;49.872;6.190;2023-05-09T10:58:32;99138.92;;;18.49;66.26
63447;BME280;49577;49.872;6.190;2023-05-09T11:00:59;99133.52;;;18.24;66.21
63447;BME280;49577;49.872;6.190;2023-05-09T11:03:26;99134.98;;;18.10;66.74
63447;BME280;49577;49.872;6.190;2023-05-09T11:05:54;99127.88;;;18.03;67.66
63447;BME280;49577;49.872;6.190;2023-05-09T11:08:26;99123.86;;;18.01;67.79
63447;BME280;49577;49.872;6.190;2023-05-09T11:10:54;99119.14;;;18.00;67.71
63447;BME280;49577;49.872;6.190;2023-05-09T11:13:24;99116.66;;;18.01;68.23
63447;BME280;49577;49.872;6.190;2023-05-09T11:18:17;99106.55;;;18.14;68.14
63447;BME280;49577;49.872;6.190;2023-05-09T11:20:45;99101.48;;;18.26;68.53
63447;BME280;49577;49.872;6.190;2023-05-09T11:23:14;99094.17;;;18.44;68.54
63447;BME280;49577;49.872;6.190;2023-05-09T11:25:41;99092.32;;;18.58;68.30
63447;BME280;49577;49.872;6.190;2023-05-09T11:28:09;99088.58;;;18.69;68.34
63447;BME280;49577;49.872;6.190;2023-05-09T11:30:40;99084.31;;;18.76;68.53
63447;BME280;49577;49.872;6.190;2023-05-09T11:33:21;99080.30;;;18.85;68.03
63447;BME280;49577;49.872;6.190;2023-05-09T11:39:09;99074.16;;;19.02;67.65
63447;BME280;49577;49.872;6.190;2023-05-09T11:41:45;99066.92;;;19.10;67.11
63447;BME280;49577;49.872;6.190;2023-05-09T11:44:20;99065.46;;;19.20;67.31
63447;BME280;49577;49.872;6.190;2023-05-09T11:46:47;99064.52;;;19.34;68.17
63447;BME280;49577;49.872;6.190;2023-05-09T11:49:13;99058.13;;;19.37;67.06
63447;BME280;49577;49.872;6.190;2023-05-09T11:51:39;99056.55;;;19.42;67.08
63447;BME280;49577;49.872;6.190;2023-05-09T11:54:06;99048.02;;;19.44;67.29
63447;BME280;49577;49.872;6.190;2023-05-09T11:56:33;99042.16;;;19.50;67.28
63447;BME280;49577;49.872;6.190;2023-05-09T11:58:58;99038.76;;;19.64;66.77
63447;BME280;49577;49.872;6.190;2023-05-09T12:01:24;99035.40;;;19.75;66.40
63447;BME280;49577;49.872;6.190;2023-05-09T12:03:50;99031.71;;;19.75;66.89
63447;BME280;49577;49.872;6.190;2023-05-09T12:06:17;99029.27;;;19.82;66.79
63447;BME280;49577;49.872;6.190;2023-05-09T12:08:43;99025.77;;;19.88;66.19
63447;BME280;49577;49.872;6.190;2023-05-09T12:11:09;99022.91;;;19.89;66.03
63447;BME280;49577;49.872;6.190;2023-05-09T12:13:43;99020.54;;;19.83;66.42
63447;BME280;49577;49.872;6.190;2023-05-09T12:16:08;99014.65;;;19.82;66.40
63447;BME280;49577;49.872;6.190;2023-05-09T12:18:34;99016.92;;;19.82;66.40
63447;BME280;49577;49.872;6.190;2023-05-09T12:20:59;99017.29;;;19.91;66.20
63447;BME280;49577;49.872;6.190;2023-05-09T12:23:25;99013.45;;;19.99;66.24
63447;BME280;49577;49.872;6.190;2023-05-09T12:25:55;99011.27;;;20.03;65.95
63447;BME280;49577;49.872;6.190;2023-05-09T12:28:25;99009.26;;;20.02;65.66
63447;BME280;49577;49.872;6.190;2023-05-09T12:30:51;99004.75;;;19.96;65.63
63447;BME280;49577;49.872;6.190;2023-05-09T12:33:17;99003.55;;;19.86;65.38
63447;BME280;49577;49.872;6.190;2023-05-09T12:35:47;98995.45;;;19.78;65.52
63447;BME280;49577;49.872;6.190;2023-05-09T12:38:21;98995.66;;;19.63;65.73
63447;BME280;49577;49.872;6.190;2023-05-09T12:40:48;98992.88;;;19.53;66.25
63447;BME280;49577;49.872;6.190;2023-05-09T12:43:13;98989.04;;;19.43;67.16
63447;BME280;49577;49.872;6.190;2023-05-09T12:45:39;98987.52;;;19.45;67.83
63447;BME280;49577;49.872;6.190;2023-05-09T12:48:07;98987.41;;;19.45;67.80
63447;BME280;49577;49.872;6.190;2023-05-09T12:50:33;98984.09;;;19.45;67.69
63447;BME280;49577;49.872;6.190;2023-05-09T12:53:01;98984.23;;;19.48;67.92
63447;BME280;49577;49.872;6.190;2023-05-09T12:55:27;98984.15;;;19.50;67.83
63447;BME280;49577;49.872;6.190;2023-05-09T12:58:02;98982.00;;;19.47;67.84
63447;BME280;49577;49.872;6.190;2023-05-09T13:00:28;98977.85;;;19.44;67.85
63447;BME280;49577;49.872;6.190;2023-05-09T13:03:05;98980.81;;;19.40;68.21
63447;BME280;49577;49.872;6.190;2023-05-09T13:05:31;98977.40;;;19.39;68.70
63447;BME280;49577;49.872;6.190;2023-05-09T13:07:56;98975.66;;;19.36;68.42
63447;BME280;49577;49.872;6.190;2023-05-09T13:10:26;98973.11;;;19.26;68.32
63447;BME280;49577;49.872;6.190;2023-05-09T13:12:53;98972.80;;;19.09;69.24
63447;BME280;49577;49.872;6.190;2023-05-09T13:15:20;98968.90;;;18.98;69.55